Bowling Green, Kentucky
Current Conditions -  °F | °C
As of 2:53 PM on Saturday 25 Oct 2014 (Local Time) from KBWG Reporting Station
Few Clouds Few Clouds  
Wind Chill: 25°   Ceiling: Unl
Heat Index: 26°   Visibility: 10mi
Dew Point: 16°   Wind: 6mph
Humidity: 56%   Direction: NA
Pressure: 29.99"   Gusts: NA
Location:  36.99°N, 86.44°W
Report Text: KBWG 251953Z AUTO VRB05KT 10SM FEW037 25/16 A2999 RMK AO2 SLP154 T02500156
Loading
Personal Weather Stations






























Interactive Weather Map
Tropical Storm Tracking
New forecast layout! Learn more

10-Day Weather Forecast

Advertisements
Track Severe Weather on mobile